Decoded Metar for KLRD (LAREDO in TX, USA) (IATA:LRD) | Meteo·Mobile Aviation Weather
aviador You're here:

KLRD Decoded Metar

LAREDO in TX, USA
Report Time2019-02-18 08:56:00
UTC Time2019-02-18 09:51:00
Flight Rules vfr VFR
Wind060° at 12 Gusting to 25 kt
W.Decomp.*RWY 35: 5.6 kt HW 10.6 kt RCW
RWY 14: 0.4 kt HW 12 kt LCW
W.Rank060° ranks 13
Current wind is above 060° avg. (7.2)
Visibility9999 m
Phenomena:N/A
Clouds:N/A
Expected CloudBase > 3,200 ft AGL from Temp-Dew spread
CeilingNone
Temp11°C (ISA -3)
Dew Point03°C (58% RH)
AAT5.2°C
QNH1016 hPa
Density Alt157 ft
Elevation509 ft
Report Wrong Elevation
Raw Report
KLRD 180856Z AUTO 06012G25KT 10SM CLR 11/03 A3000 RMK AO2 SLP169
T01060028 50006=

Extra information for KLRD:More info

Metar Taf Metar & Taf Last 4 Metars F.Rules Stats Wind Profile Meteogram Temp Stats Airport Information Weather charts Add Link Nearby VenuesMetar ALERT Operation Metar Decoded Social comments

AIRNAV info for KLRD